Pflugerville, TX

6:55 PM CDT on March 28, 2015 (GMT -0500)
Manor / Austin Executive | | Change Station
CLOSE
Current Station
Airport
Location: Manor / Austin Executive,
Elevation: 617 ft
Nearby Weather Stations

Elev 617 ft 30.39 °N, 97.56 °W | Updated 20 minutes ago

Clear
Clear
79 °F
Feels Like 79 °F
N
14
Wind Variable Wind from South
Gusts 20 mph

Today
High -- | Low -- °F
--% Chance of Precip.
Yesterday
High -- | Low -- °F
Precip. -- in
7:24 AM 7:46 PM
Waxing Gibbous, 66% visible
Pressure 30.02 in
Visibility 10.0 miles
Clouds
Dew Point 45 °F
Humidity 30%
Rainfall 0.00 in
Snow Depth Not available.
UV Not available.
Pollen 9.50 out of 12
Air Quality Not available.
Flu Activity Not available.
METAR KEDC 282335Z AUTO 18012G17KT 10SM 26/07 A3002 RMK AO2

More Conditions Fewer Conditions

Pressure 30.02 in
Visibility 10.0 miles
Clouds
Dew Point 45 °F
Humidity 30%
Rainfall 0.00 in
Snow Depth Not available.
UV Not available.
Pollen 9.50 out of 12
Air Quality Not available.
Flu Activity Not available.
METAR KEDC 282335Z AUTO 18012G17KT 10SM 26/07 A3002 RMK AO2

More Conditions Fewer Conditions

10-Day Weather Forecast

Almanac

Astronomy

Mar. 28, 2015 Rise Set
Actual Time
Civil Twilight
Nautical Twilight
Astronomical Twilight
Moon
Length of Visible Light
Length of Day
Tomorrow will be .
, % of the Moon is Illuminated

Today's Extremes

State Highs State Lows

Community

WunderPhotos

Upload Photos

1,809,128 photos uploaded!

WunderBlogs® & News

Nearby

Air Quality

  Air Quality AQ Index Pollutant
Not available.

Snow Depth

Station Depth Elevation

Earthquake Activity

City Distance Mag. Time & Date
Minimum magnitude displayed is 2.5.

Coastal Water Temperatures

Place Temperature

Stations

Nearby Weather Stations

Station Location Temp. Windchill Dew Point Humidity Wind Precip. Elev Updated Type